Logo AVAMET
Benvolgut visitant, si us plau, ingressa Recuperar contrasenya

Alcanar

Dades diàries. Acumulats / Últims 30 dies disponibles

Data Temperatura (°C) Humitat rel. (%) Pressió rel. (hPa) Vent (km/h) Precipitació
Mínima Mitjana Màxima Amplitud
tèrmica
Mínima Mitjana Màxima Mínima Mitjana Màxima Predom. Mitjana Ràfega
màxima
Total
(mm)
Índex-n
Mínima Mitjana Màxima Mínima Mitjana Màxima n
0 a 1
P0 max
mm 5'
Dades mensuals acumulades fins l'últim dia disponible
07/2019 21,1 23,2 25,4 26,1 26,1 29,1 31,6 10,5 34 68 92 1.009 1.014 1.018   44,0 2,2
Dades anuals acumulades fins l'últim dia disponible
2019 3,1 12,7 25,4 16,1 10,7 19,5 34,4 31,3 19 65 98 991 1.019 1.037   71,0 50,6
Últims 30 dies disponibles
16-07-2019 22,4     25,1     27,9 5,5 54 69 84 1.015 1.016 1.017 27,0 0,4
15-07-2019 24,2     27,0     29,8 5,6 34 57 79 1.010 1.013 1.015 34,0 0,0
14-07-2019 23,3     26,4     29,5 6,2 49 69 89 1.010 1.012 1.013 27,0 0,8
12-07-2019 24,3     25,2     26,1 1,8 53 63 73 1.014 1.015 1.015 6,0 0,0
11-07-2019 23,1     26,2     29,3 6,2 56 69 81 1.013 1.014 1.015 26,0 0,0
10-07-2019 21,3     24,6     27,9 6,6 41 59 77 1.013 1.015 1.016 24,0 0,0
09-07-2019 21,1     25,4     29,7 8,6 38 58 78 1.010 1.012 1.014 44,0 0,0
08-07-2019 25,0     26,6     28,3 3,3 60 72 83 1.011 1.013 1.015 24,0 0,6
07-07-2019 24,6     28,1     31,6 7,0 51 71 91 1.009 1.012 1.014 26,0 0,4
06-07-2019 23,7     26,6     29,5 5,8 72 81 89 1.010 1.013 1.016 21,0 0,0
05-07-2019 23,3     26,1     29,0 5,7 60 76 91 1.014 1.016 1.018 21,0 0,0
04-07-2019 21,6     26,1     30,7 9,1 39 62 84 1.015 1.016 1.017 18,0 0,0
03-07-2019 21,9     25,9     29,9 8,0 46 69 92 1.014 1.015 1.015 21,0 0,0
02-07-2019 22,7     25,7     28,7 6,0 57 74 91 1.014 1.016 1.017 24,0 0,0
01-07-2019 25,4     26,6     27,9 2,5 66 73 79 1.015 1.016 1.017 21,0 0,0
30-06-2019 22,4     25,1     27,7 5,3 65 75 85 1.015 1.017 1.018 23,0 0,0
29-06-2019 23,3     28,9     34,4 11,1 24 53 82 1.013 1.014 1.015 16,0 0,0
28-06-2019 21,3     27,1     33,0 11,7 35 61 86 1.014 1.017 1.019 19,0 0,0
27-06-2019 23,8     27,8     31,7 7,9 40 62 83 1.018 1.020 1.021 27,0 0,0
26-06-2019 21,9     25,2     28,6 6,7 49 69 89 1.018 1.020 1.021 37,0 0,0
25-06-2019 22,0     24,1     26,3 4,3 74 81 88 1.015 1.017 1.019 26,0 0,0
24-06-2019 19,6     23,9     28,1 8,5 44 68 91 1.014 1.015 1.016 34,0 0,0
23-06-2019 20,1     22,8     25,4 5,3 67 79 90 1.014 1.015 1.016 23,0 0,0
21-06-2019 21,0     21,4     21,7 0,7 81 82 83 1.016 1.017 1.017 0,0 0,0
20-06-2019 19,8     22,6     25,3 5,5 53 73 92 1.012 1.014 1.015 29,0 0,0
19-06-2019 19,0     22,8     26,5 7,5 51 72 92 1.012 1.014 1.015 18,0 0,0
18-06-2019 19,2     22,1     24,9 5,7 52 70 88 1.014 1.016 1.017 29,0 0,0
17-06-2019 18,0     20,9     23,8 5,8 60 74 87 1.016 1.018 1.019 23,0 0,0
16-06-2019 17,9     20,6     23,3 5,4 53 72 90 1.018 1.020 1.022 26,0 0,0
15-06-2019 16,7     21,2     25,8 9,1 40 67 93 1.013 1.017 1.021 23,0 0,0
Últims 13 mesos disponibles
06/2019 11,6 18,5 23,8 21,8 19,9 25,0 34,4 22,8 42 66 84 1.010 1.016 1.023 37,0 5,6
05/2019 11,3 14,7 19,8 18,0 16,9 21,3 27,8 16,5 43 64 89 1.006 1.016 1.025 64,0 19,6
04/2019 8,1 11,8 15,1 14,9 16,0 18,1 23,4 15,3 44 66 82 1.000 1.014 1.026 53,0 17,2
03/2019 6,9 10,3 12,4 14,2 13,8 18,1 24,1 17,2 43 61 83 1.012 1.024 1.031 53,0 4,4
02/2019 4,8 8,1 10,9 11,8 11,5 15,5 20,5 15,7 36 69 84 994 1.026 1.036 69,0 0,4
01/2019 3,1 7,7 11,1 11,0 10,7 14,2 18,6 15,5 40 61 84 1.002 1.020 1.033 71,0 1,2
12/2018 6,4 10,2 13,8 13,5 10,6 16,7 23,0 16,6 54 71 88 1.015 1.026 1.032 66,0 0,4
11/2018 8,3 11,6 17,0 14,6 14,2 17,5 19,7 11,4 54 75 89 1.003 1.016 1.025 71,0 98,2
10/2018 7,6 15,3 19,7 18,5 14,1 21,8 26,1 18,5 44 71 91 998 1.015 1.027 61,0 245,4
09/2018 17,2 20,7 23,5 23,9 23,3 27,1 29,8 12,6 53 73 84 1.013 1.020 1.030 44,0 58,0
08/2018 18,8 22,9 27,2 26,2 26,3 29,5 35,2 16,4 50 68 82 1.012 1.016 1.022 40,0 20,2
07/2018 19,2 22,8 24,2 25,8 27,1 28,8 33,0 13,8 53 72 80 1.010 1.015 1.020 47,0 8,8
06/2018 15,2 19,6 22,4 22,6 22,6 25,7 29,4 14,2 48 70 84 1.011 1.015 1.021 47,0 52,0
Tots els anys disponibles
2018 1,7 14,9 27,2 18,2 4,2 21,4 35,2 33,5 36 69 94 995 1.016 1.037 77,0 612,0
2017 2,3 14,6 25,4 17,9 8,2 21,3 34,2 31,9 32 68 93 998 1.020 1.038 71,0 185,2
2016 2,3 14,7 24,7 17,9 10,8 21,0 31,6 29,3 36 69 94 994 1.019 1.039 69,0 318,4
2015 2,1 14,7 21,4 17,9 19,3 21,2 32,0 29,9 58 69 80 1.016 1.020 1.031 89,0 330,4
2014 3,7 14,9 25,1 18,0 10,6 21,1 32,4 28,7 38 69 92 996 1.017 1.035 82,0 313,0
2013 2,5 14,1 18,7 17,4 17,4 20,6 31,6 29,1 57 66 71 1.008 1.017 1.026 82,0 400,8
2012 -0,2 6,3 3,8 10,0 20,4 13,6 22,4 22,6 46 56 67 87,0
2011 -0,2 14,3 24,5 17,5 7,8 20,7 31,4 31,6 37 69 91 119,0 435,6
Temperatura (°C)
Humitat relativa (%)
Velocitat del vent i ràfega màxima (km/h)
Direcció del vent (°)
Pressió (hPa)
Precipitació (mm)
Nota sobre les dades: s'avisa a l'usuari de la provisionalitat i no oficialitat d'aquestes dades
Logo AVAMET blanc
Web allotjada a Sollutia
Llicència de Creative CommonsLa web d'AVAMET i els seus continguts estan subjectes a una llicència de
Reconeixement - No Comercial - Compartir igual
Properes estacions: Altea - Club Nàutic d'Altea (Soci), Ares del Maestrat (Ajuntament Soci),      - - - - -      Últimes estacions: Catadau - Urb. Lloma Molina (Inforatge), Ontinyent - El Pilar (Soci), Asp - Poliesportiu (Soci) - - -